Time;durP1;ratioP1;P1;durP2;ratioP2;P2;SDS_P1;SDS_P2;PMS_P1;PMS_P2;Temp;Humidity;BMP_temperature;BMP_pressure;BME280_temperature;BME280_humidity;BME280_pressure;Samples;Min_cycle;Max_cycle;Signal;HPM_P1;HPM_P2
2021/12/09 00:00:17;;;;;;;8.85;2.17;;;;;;;3.26;78.73;99365.19;4909917;29;20052;-86
2021/12/09 00:02:44;;;;;;;8.27;2.67;;;;;;;3.26;78.91;99370.66;4887753;29;20075;-85
2021/12/09 00:05:15;;;;;;;14.00;2.13;;;;;;;3.23;78.58;99376.81;4895335;29;20049;-89
2021/12/09 00:07:44;;;;;;;;;;;;;;;3.19;79.13;99370.41;4895604;29;20477;-91
2021/12/09 00:10:12;;;;;;;9.85;2.75;;;;;;;3.18;78.57;99379.75;4894694;29;19931;-87
2021/12/09 00:12:40;;;;;;;5.20;1.70;;;;;;;3.17;78.98;99383.59;4907404;29;20047;-88
2021/12/09 00:15:07;;;;;;;10.60;3.42;;;;;;;3.16;79.12;99374.59;4912579;29;20075;-87
2021/12/09 00:17:37;;;;;;;13.75;2.78;;;;;;;3.16;78.97;99377.31;4909421;29;20052;-87
2021/12/09 00:20:05;;;;;;;8.15;2.42;;;;;;;3.15;79.21;99383.13;4888113;29;20481;-87
2021/12/09 00:22:32;;;;;;;11.65;2.20;;;;;;;3.16;79.01;99387.47;4877346;29;20056;-88
2021/12/09 00:24:59;;;;;;;10.50;4.05;;;;;;;3.15;79.05;99380.41;4908852;29;20135;-86
2021/12/09 00:27:26;;;;;;;13.95;3.08;;;;;;;3.11;79.50;99372.03;4908175;29;20048;-86
2021/12/09 00:29:53;;;;;;;10.88;2.75;;;;;;;3.11;79.43;99373.97;4894205;29;20119;-87
2021/12/09 00:32:21;;;;;;;11.38;2.22;;;;;;;3.05;79.44;99371.44;4894664;29;20037;-88
2021/12/09 00:34:50;;;;;;;8.60;2.45;;;;;;;3.03;79.80;99373.69;4904886;29;20137;-87
2021/12/09 00:37:34;;;;;;;12.88;2.88;;;;;;;3.03;79.89;99383.81;4905458;29;20111;-88
2021/12/09 00:40:01;;;;;;;11.35;3.10;;;;;;;3.01;79.65;99375.16;4909540;29;20048;-87
2021/12/09 00:42:29;;;;;;;9.95;2.85;;;;;;;2.98;79.98;99384.81;4893989;29;20068;-87
2021/12/09 00:44:57;;;;;;;10.55;3.78;;;;;;;2.98;79.68;99387.53;4894619;29;20051;-85
2021/12/09 00:47:25;;;;;;;8.20;3.03;;;;;;;2.95;79.93;99381.94;4892137;29;20036;-87
2021/12/09 00:49:56;;;;;;;10.38;2.25;;;;;;;2.93;80.13;99376.78;4894064;29;20032;-88
2021/12/09 00:52:27;;;;;;;9.98;2.30;;;;;;;2.92;80.25;99388.84;4909570;29;20083;-87
2021/12/09 00:54:56;;;;;;;11.68;3.10;;;;;;;2.89;80.53;99388.69;4909772;29;20044;-86
2021/12/09 00:57:24;;;;;;;18.55;4.85;;;;;;;2.89;80.35;99400.44;4893634;29;20048;-86
2021/12/09 00:59:51;;;;;;;14.50;2.58;;;;;;;2.90;80.54;99403.97;4909886;29;20166;-86
2021/12/09 01:02:18;;;;;;;16.38;3.13;;;;;;;2.90;80.59;99407.50;4898908;29;20107;-87
2021/12/09 01:04:46;;;;;;;15.95;3.85;;;;;;;2.89;80.58;99416.84;4909011;29;20136;-87
2021/12/09 01:07:13;;;;;;;6.20;2.22;;;;;;;2.87;80.53;99410.91;4892479;29;20040;-87
2021/12/09 01:09:40;;;;;;;8.35;2.53;;;;;;;2.84;80.81;99410.75;4903123;29;20036;-88
2021/12/09 01:12:08;;;;;;;14.38;4.50;;;;;;;2.86;81.00;99417.47;4894325;29;20109;-86
2021/12/09 01:14:37;;;;;;;13.48;2.22;;;;;;;2.84;81.15;99425.22;4874441;29;20143;-87
2021/12/09 01:17:10;;;;;;;9.80;2.85;;;;;;;2.83;81.44;99411.88;4892611;29;20059;-86
2021/12/09 01:19:38;;;;;;;11.70;2.40;;;;;;;2.82;81.52;99422.00;4894099;29;20048;-87
2021/12/09 01:22:05;;;;;;;8.18;1.75;;;;;;;2.81;81.43;99420.41;4909766;29;20983;-86
2021/12/09 01:24:32;;;;;;;8.70;2.45;;;;;;;2.80;81.33;99413.34;4903813;29;20052;-87
2021/12/09 01:27:00;;;;;;;11.43;3.00;;;;;;;2.78;81.82;99418.31;4892765;29;20113;-86
2021/12/09 01:29:37;;;;;;;12.75;2.08;;;;;;;2.79;81.54;99419.94;4895959;29;20804;-87
2021/12/09 01:32:08;;;;;;;7.05;1.98;;;;;;;2.79;81.82;99417.19;4900770;29;20051;-87
2021/12/09 01:34:36;;;;;;;15.55;2.55;;;;;;;2.80;82.14;99412.53;4909435;29;20134;-86
2021/12/09 01:37:05;;;;;;;8.30;1.75;;;;;;;2.80;81.75;99420.72;4892375;29;20060;-86
2021/12/09 01:39:33;;;;;;;6.05;2.17;;;;;;;2.79;82.13;99435.50;4893529;29;20099;-86
2021/12/09 01:42:00;;;;;;;8.35;2.47;;;;;;;2.79;82.29;99436.31;4908244;29;20046;-88
2021/12/09 01:44:27;;;;;;;8.23;1.63;;;;;;;2.83;81.97;99418.13;4877467;29;20074;-87
2021/12/09 01:46:56;;;;;;;9.48;1.75;;;;;;;2.82;82.48;99415.75;4908488;29;20499;-86
2021/12/09 01:49:23;;;;;;;15.27;2.22;;;;;;;2.83;82.34;99420.88;4891461;29;20066;-87
2021/12/09 01:51:51;;;;;;;15.40;3.88;;;;;;;2.83;82.41;99426.31;4885828;29;20064;-87
2021/12/09 01:54:18;;;;;;;8.75;1.70;;;;;;;2.83;81.97;99431.78;4902116;29;20493;-86
2021/12/09 01:56:45;;;;;;;6.70;1.65;;;;;;;2.83;82.47;99433.75;4911063;29;20092;-87
2021/12/09 01:59:12;;;;;;;9.77;1.77;;;;;;;2.82;82.27;99435.69;4895143;29;20052;-87
2021/12/09 02:01:38;;;;;;;11.48;2.38;;;;;;;2.82;82.34;99443.88;4906006;29;20666;-88
2021/12/09 02:04:07;;;;;;;8.85;1.77;;;;;;;2.82;82.62;99449.34;4895124;29;20135;-86
2021/12/09 02:06:40;;;;;;;13.98;2.83;;;;;;;2.81;82.41;99447.72;4892090;29;20055;-87
2021/12/09 02:09:09;;;;;;;10.68;2.13;;;;;;;2.80;nan;99448.06;4894510;29;20062;-87
2021/12/09 02:11:36;;;;;;;13.10;1.80;;;;;;;2.81;82.38;99442.25;4910810;29;20035;-87
2021/12/09 02:14:04;;;;;;;10.43;3.05;;;;;;;2.80;82.27;99451.59;4892662;29;20048;-86
2021/12/09 02:16:31;;;;;;;5.95;2.58;;;;;;;2.81;82.54;99458.66;4895771;29;20048;-86
2021/12/09 02:18:59;;;;;;;11.25;2.28;;;;;;;2.81;82.31;99469.59;4894108;29;20079;-87
2021/12/09 02:21:31;;;;;;;12.93;3.47;;;;;;;2.80;82.43;99461.72;4909504;29;20087;-86
2021/12/09 02:24:04;;;;;;;9.13;2.20;;;;;;;2.79;82.54;99455.44;4906930;29;20523;-88
2021/12/09 02:26:37;;;;;;;13.85;3.53;;;;;;;2.78;82.33;99453.06;4911475;29;20103;-87
2021/12/09 02:29:11;;;;;;;8.82;1.98;;;;;;;2.78;82.07;99464.78;4893613;29;20044;-87
2021/12/09 02:31:39;;;;;;;10.27;2.60;;;;;;;2.77;82.57;99462.38;4892746;29;20135;-86
2021/12/09 02:34:06;;;;;;;12.82;4.45;;;;;;;2.76;82.33;99452.56;4905912;29;20040;-86
2021/12/09 02:36:38;;;;;;;9.63;2.13;;;;;;;2.74;82.43;99450.16;4908147;29;20040;-86
2021/12/09 02:39:06;;;;;;;14.45;3.35;;;;;;;2.72;82.46;99449.69;4910199;29;20032;-87
2021/12/09 02:41:36;;;;;;;7.35;2.65;;;;;;;2.69;82.52;99455.81;4889979;29;20151;-87
2021/12/09 02:44:05;;;;;;;11.00;2.28;;;;;;;2.68;82.30;99456.91;4891818;29;20048;-87
2021/12/09 02:46:36;;;;;;;15.55;2.92;;;;;;;2.64;82.66;99455.16;4901828;29;20499;-87
2021/12/09 02:49:10;;;;;;;4.75;1.50;;;;;;;2.62;82.69;99452.75;4908488;29;20033;-86
2021/12/09 02:51:38;;;;;;;7.57;2.78;;;;;;;2.62;82.93;99460.94;4890745;29;20080;-87
2021/12/09 02:54:06;;;;;;;9.10;2.03;;;;;;;2.60;82.68;99457.72;4892612;29;20127;-87
2021/12/09 02:56:35;;;;;;;9.73;3.00;;;;;;;2.60;82.50;99465.94;4898853;29;20051;-86
2021/12/09 02:59:04;;;;;;;7.88;2.05;;;;;;;2.58;82.86;99468.19;4893178;29;20052;-86
2021/12/09 03:01:36;;;;;;;11.52;2.50;;;;;;;2.57;83.07;99477.50;4891902;29;20044;-87
2021/12/09 03:04:05;;;;;;;9.55;1.60;;;;;;;2.58;83.23;99490.03;4896516;29;20047;-86
2021/12/09 03:06:36;;;;;;;9.80;1.75;;;;;;;2.59;82.86;99474.47;4895244;29;20049;-87
2021/12/09 03:09:08;;;;;;;21.77;1.98;;;;;;;2.59;83.20;99486.19;4896746;29;21941;-87
2021/12/09 03:11:36;;;;;;;11.50;1.40;;;;;;;2.60;83.14;99478.78;4898396;29;20051;-86
2021/12/09 03:14:04;;;;;;;10.20;2.92;;;;;;;2.63;83.43;99476.22;4913315;29;20067;-87
2021/12/09 03:16:31;;;;;;;13.20;3.42;;;;;;;2.65;83.23;99481.38;4901624;29;20492;-87
2021/12/09 03:19:03;;;;;;;7.05;1.88;;;;;;;2.66;83.07;99483.78;4896733;29;20167;-87
2021/12/09 03:21:37;;;;;;;9.90;1.73;;;;;;;2.68;83.37;99486.16;4896924;29;20048;-87
2021/12/09 03:24:07;;;;;;;12.63;3.25;;;;;;;2.70;83.22;99464.81;4909247;29;20052;-86
2021/12/09 03:27:02;;;;;;;7.78;1.55;;;;;;;2.71;83.56;99460.94;4914938;29;20050;-87
2021/12/09 03:29:30;;;;;;;11.02;1.88;;;;;;;2.72;83.10;99444.22;4882095;29;20052;-88
2021/12/09 03:32:02;;;;;;;4.72;1.30;;;;;;;2.72;83.23;99435.22;4895926;29;20055;-86
2021/12/09 03:34:31;;;;;;;8.15;1.52;;;;;;;2.74;83.07;99432.97;4900696;29;20068;-86
2021/12/09 03:37:01;;;;;;;12.90;1.83;;;;;;;2.73;83.12;99429.41;4910680;29;20043;-86
2021/12/09 03:39:32;;;;;;;7.50;1.85;;;;;;;2.75;82.82;99440.84;4895452;29;20040;-87
2021/12/09 03:41:59;;;;;;;12.20;2.55;;;;;;;2.75;83.09;99454.50;4894431;29;20112;-86
2021/12/09 03:44:28;;;;;;;8.38;2.63;;;;;;;2.75;82.86;99457.25;4909842;29;20118;-86
2021/12/09 03:46:59;;;;;;;6.57;1.67;;;;;;;2.75;83.54;99465.44;4894443;29;20148;-86
2021/12/09 03:49:26;;;;;;;10.23;2.10;;;;;;;2.76;83.41;99467.03;4907562;29;20139;-86
2021/12/09 03:51:54;;;;;;;6.53;2.70;;;;;;;2.78;83.39;99464.78;4911628;29;20388;-87
2021/12/09 03:54:21;;;;;;;6.47;1.80;;;;;;;2.79;83.10;99463.66;4903893;29;20040;-87
2021/12/09 03:56:50;;;;;;;7.78;2.05;;;;;;;2.80;83.26;99470.72;4893159;29;20048;-87
2021/12/09 03:59:16;;;;;;;6.97;1.33;;;;;;;2.79;83.25;99482.78;4895164;29;20048;-87
2021/12/09 04:01:45;;;;;;;9.75;1.50;;;;;;;2.80;83.17;99480.84;4896343;29;20107;-85
2021/12/09 04:04:13;;;;;;;12.20;1.52;;;;;;;2.80;83.53;99481.66;4905858;29;20469;-86
2021/12/09 04:06:43;;;;;;;14.85;2.22;;;;;;;2.82;83.35;99478.59;4911762;29;20047;-87
2021/12/09 04:09:13;;;;;;;8.25;1.80;;;;;;;2.83;83.40;99489.19;4913008;29;20103;-86
2021/12/09 04:11:40;;;;;;;8.88;1.88;;;;;;;2.86;83.49;99493.22;4911262;29;20116;-87
2021/12/09 04:14:08;;;;;;;3.97;1.75;;;;;;;2.86;83.03;99491.28;4910323;29;20131;-86
2021/12/09 04:16:36;;;;;;;8.23;1.60;;;;;;;2.87;83.31;99481.97;4908190;29;20076;-88
2021/12/09 04:19:05;;;;;;;8.77;1.73;;;;;;;2.88;83.27;99480.84;4912932;29;20040;-87
2021/12/09 04:21:32;;;;;;;5.60;1.50;;;;;;;2.90;83.30;99477.78;4891780;29;20063;-87
2021/12/09 04:24:07;;;;;;;5.75;2.05;;;;;;;2.91;83.21;99471.97;4888457;29;20044;-87
2021/12/09 04:26:38;;;;;;;;;;;;;;;2.91;83.70;99458.31;4912806;29;20059;-87
2021/12/09 04:29:07;;;;;;;8.10;1.10;;;;;;;2.94;83.51;99467.78;4914369;29;20329;-86
2021/12/09 04:31:34;;;;;;;9.77;2.15;;;;;;;2.95;83.36;99461.19;4905067;29;20437;-86
2021/12/09 04:34:02;;;;;;;6.47;1.83;;;;;;;2.98;82.94;99455.09;4897575;29;20485;-86
2021/12/09 04:36:29;;;;;;;18.33;1.75;;;;;;;2.99;83.34;99443.03;4916973;29;20485;-86
2021/12/09 04:38:56;;;;;;;12.68;1.35;;;;;;;3.01;83.32;99446.22;4906164;29;20103;-86
2021/12/09 04:41:23;;;;;;;5.82;1.30;;;;;;;3.03;83.12;99452.97;4895234;29;20491;-85
2021/12/09 04:43:50;;;;;;;3.08;1.35;;;;;;;3.04;82.94;99451.81;4907856;29;20066;-86
2021/12/09 04:46:17;;;;;;;6.93;1.48;;;;;;;3.06;83.12;99455.06;4892529;29;20044;-87
2021/12/09 04:48:44;;;;;;;11.13;1.83;;;;;;;3.08;83.01;99455.53;4907024;29;20040;-87
2021/12/09 04:51:11;;;;;;;7.68;1.60;;;;;;;3.12;83.05;99457.63;4900130;29;20139;-86
2021/12/09 04:53:38;;;;;;;5.50;1.00;;;;;;;3.14;83.04;99460.81;4894784;29;20392;-86
2021/12/09 04:56:08;;;;;;;3.47;1.60;;;;;;;3.17;82.81;99471.09;4895271;29;20100;-86
2021/12/09 04:58:35;;;;;;;5.00;1.45;;;;;;;3.19;82.78;99468.84;4894714;29;20087;-87
2021/12/09 05:01:05;;;;;;;7.68;1.40;;;;;;;3.21;82.59;99459.19;4905738;29;20048;-87
2021/12/09 05:03:33;;;;;;;9.45;1.98;;;;;;;3.25;82.92;99462.06;4897310;29;20060;-87
2021/12/09 05:06:00;;;;;;;6.63;1.10;;;;;;;3.26;82.69;99469.13;4894622;29;20056;-86
2021/12/09 05:08:29;;;;;;;9.93;2.33;;;;;;;3.27;82.55;99457.06;4894448;29;20087;-86
2021/12/09 05:11:07;;;;;;;6.90;1.70;;;;;;;3.30;82.57;99459.16;4913683;29;20151;-86
2021/12/09 05:13:37;;;;;;;7.65;1.42;;;;;;;3.31;82.25;99456.06;4910617;29;20763;-86
2021/12/09 05:16:06;;;;;;;8.27;1.63;;;;;;;3.36;82.22;99468.78;4892522;29;20076;-87
2021/12/09 05:18:35;;;;;;;3.88;0.93;;;;;;;3.36;82.47;99457.84;4908071;29;20045;-86
2021/12/09 05:21:04;;;;;;;16.40;2.58;;;;;;;3.37;82.19;99471.19;4886654;29;20055;-85
2021/12/09 05:23:31;;;;;;;8.13;1.05;;;;;;;3.38;82.20;99472.00;4910068;29;20123;-87
2021/12/09 05:25:58;;;;;;;5.10;1.40;;;;;;;3.39;82.18;99468.91;4894469;29;20036;-86
2021/12/09 05:28:31;;;;;;;9.45;1.38;;;;;;;3.40;82.38;99472.44;4894804;29;20048;-86
2021/12/09 05:33:46;;;;;;;6.93;1.08;;;;;;;3.41;81.93;99485.00;4907912;29;20055;-87
2021/12/09 05:36:13;;;;;;;11.57;1.75;;;;;;;3.41;82.24;99482.28;4890318;29;20055;-87
2021/12/09 05:38:39;;;;;;;6.00;1.58;;;;;;;3.41;82.42;99479.53;4889027;29;20048;-87
2021/12/09 05:41:08;;;;;;;8.60;1.88;;;;;;;3.42;81.89;99487.41;4889522;29;20039;-86
2021/12/09 05:43:36;;;;;;;13.30;2.20;;;;;;;3.43;82.10;99482.75;4893572;29;20060;-86
2021/12/09 05:46:03;;;;;;;9.25;1.52;;;;;;;3.43;82.28;99485.47;4889675;29;20057;-87
2021/12/09 05:48:31;;;;;;;8.50;1.27;;;;;;;3.43;81.99;99480.81;4890553;29;20044;-85
2021/12/09 05:50:58;;;;;;;8.02;1.73;;;;;;;3.44;82.26;99476.16;4910886;29;20044;-86
2021/12/09 05:53:25;;;;;;;9.88;2.05;;;;;;;3.45;82.17;99475.00;4909783;29;20062;-86
2021/12/09 05:55:52;;;;;;;10.05;1.83;;;;;;;3.44;82.12;99470.69;4897966;29;20036;-86
2021/12/09 05:58:22;;;;;;;7.05;1.70;;;;;;;3.45;82.54;99472.28;4893974;29;20040;-86
2021/12/09 06:00:51;;;;;;;9.57;2.25;;;;;;;3.45;82.15;99469.53;4906152;29;20047;-87
2021/12/09 06:03:19;;;;;;;10.55;1.98;;;;;;;3.42;82.24;99456.50;4894144;29;20047;-87
2021/12/09 06:05:51;;;;;;;11.50;1.63;;;;;;;3.41;82.32;99463.13;4890982;29;20097;-86
2021/12/09 06:08:19;;;;;;;8.57;1.48;;;;;;;3.41;82.35;99465.88;4893138;29;20046;-86
2021/12/09 06:10:46;;;;;;;9.65;2.10;;;;;;;3.40;82.40;99458.78;4907768;29;20054;-87
2021/12/09 06:13:13;;;;;;;11.00;1.63;;;;;;;3.39;82.58;99451.72;4893650;29;20052;-87
2021/12/09 06:15:40;;;;;;;13.73;4.32;;;;;;;3.37;82.53;99449.28;4886099;29;20155;-87
2021/12/09 06:18:07;;;;;;;7.32;2.00;;;;;;;3.37;82.84;99437.53;4891079;29;20123;-87
2021/12/09 06:20:34;;;;;;;13.57;2.38;;;;;;;3.36;83.12;99441.44;4890967;29;20096;-87
2021/12/09 06:23:01;;;;;;;4.97;1.42;;;;;;;3.37;82.82;99459.44;4908149;29;20048;-86
2021/12/09 06:25:28;;;;;;;9.02;1.90;;;;;;;3.37;83.00;99468.44;4894047;29;20050;-85
2021/12/09 06:27:55;;;;;;;6.88;1.80;;;;;;;3.37;82.89;99470.38;4894875;29;20493;-85
2021/12/09 06:30:22;;;;;;;7.60;1.58;;;;;;;3.37;82.99;99471.19;4907216;29;20147;-86
2021/12/09 06:32:49;;;;;;;6.55;1.88;;;;;;;3.37;82.84;99462.16;4902974;29;20048;-86
2021/12/09 06:35:16;;;;;;;12.85;2.00;;;;;;;3.36;83.11;99453.16;4890809;29;20483;-86
2021/12/09 06:37:45;;;;;;;13.38;2.17;;;;;;;3.37;82.97;99453.97;4892013;29;20142;-86
2021/12/09 06:40:16;;;;;;;5.05;1.85;;;;;;;3.36;83.40;99441.44;4893418;29;20468;-86
2021/12/09 06:42:44;;;;;;;12.52;3.13;;;;;;;3.38;83.05;99461.03;4903946;29;20388;-86
2021/12/09 06:45:13;;;;;;;8.90;1.52;;;;;;;3.38;83.25;99461.03;4891547;29;20048;-84
2021/12/09 06:47:40;;;;;;;14.80;2.70;;;;;;;3.40;83.12;99454.13;4889354;29;20151;-86
2021/12/09 06:50:09;;;;;;;18.35;2.80;;;;;;;3.43;83.21;99456.19;4892678;29;20127;-86
2021/12/09 06:52:39;;;;;;;7.10;1.58;;;;;;;3.45;83.38;99453.13;4909713;29;20847;-87
2021/12/09 06:55:08;;;;;;;9.57;1.55;;;;;;;3.46;83.42;99446.53;4909217;29;20042;-86
2021/12/09 06:57:36;;;;;;;12.52;2.55;;;;;;;3.48;83.50;99434.13;4889646;29;20075;-87
2021/12/09 07:00:06;;;;;;;11.38;1.65;;;;;;;3.52;83.47;99446.00;4909364;29;20036;-86
2021/12/09 07:02:33;;;;;;;12.15;2.38;;;;;;;3.54;83.33;99434.72;4908150;29;20129;-86
2021/12/09 07:05:01;;;;;;;12.38;1.85;;;;;;;3.58;83.34;99427.44;4893369;29;20048;-87
2021/12/09 07:07:27;;;;;;;8.40;2.92;;;;;;;3.60;83.51;99433.41;4905796;29;20048;-86
2021/12/09 07:09:54;;;;;;;9.95;3.78;;;;;;;3.61;83.51;99432.28;4890939;29;20125;-86
2021/12/09 07:12:21;;;;;;;10.38;2.33;;;;;;;3.63;83.21;99438.22;4892009;29;20050;-86
2021/12/09 07:14:48;;;;;;;8.95;2.15;;;;;;;3.63;83.54;99433.53;4902520;29;20498;-87
2021/12/09 07:17:20;;;;;;;9.07;2.30;;;;;;;3.65;83.38;99431.25;4904356;29;21870;-87
2021/12/09 07:19:47;;;;;;;10.07;1.92;;;;;;;3.67;83.29;99428.22;4892637;29;20115;-86
2021/12/09 07:22:14;;;;;;;14.98;2.30;;;;;;;3.68;83.28;99416.94;4904708;29;20058;-86
2021/12/09 07:24:41;;;;;;;9.68;2.60;;;;;;;3.71;83.41;99409.22;4908542;29;20048;-86
2021/12/09 07:27:10;;;;;;;16.92;2.63;;;;;;;3.73;83.50;99415.16;4887799;29;20045;-86
2021/12/09 07:29:37;;;;;;;11.13;2.60;;;;;;;3.75;83.54;99413.69;4892817;29;20119;-86
2021/12/09 07:32:04;;;;;;;7.20;1.83;;;;;;;3.75;83.61;99405.47;4892649;29;20142;-85
2021/12/09 07:34:31;;;;;;;13.27;2.53;;;;;;;3.76;83.78;99401.56;4912885;29;20473;-87
2021/12/09 07:37:03;;;;;;;14.82;2.85;;;;;;;3.78;83.82;99393.84;4909417;29;20040;-87
2021/12/09 07:39:31;;;;;;;13.73;2.38;;;;;;;3.77;83.42;99378.56;4893557;29;20119;-85
2021/12/09 07:41:59;;;;;;;15.57;4.03;;;;;;;3.77;83.67;99366.78;4910455;29;20477;-86
2021/12/09 07:44:27;;;;;;;7.03;1.70;;;;;;;3.75;83.92;99369.88;4907682;29;20527;-87
2021/12/09 07:46:55;;;;;;;11.65;2.03;;;;;;;3.76;84.13;99363.25;4893030;29;20051;-86
2021/12/09 07:49:24;;;;;;;12.10;1.50;;;;;;;3.74;83.91;99364.72;4913797;29;20044;-87
2021/12/09 07:51:51;;;;;;;8.10;2.33;;;;;;;3.75;84.13;99371.81;4894214;29;20484;-87
2021/12/09 07:54:18;;;;;;;7.95;1.83;;;;;;;3.74;84.15;99356.50;4902941;29;20044;-87
2021/12/09 07:56:46;;;;;;;13.13;2.55;;;;;;;3.74;83.93;99357.31;4896513;29;20054;-84
2021/12/09 07:59:13;;;;;;;6.28;1.90;;;;;;;3.75;84.15;99358.94;4910696;29;20104;-88
2021/12/09 08:01:41;;;;;;;8.30;1.70;;;;;;;3.75;84.00;99356.19;4889134;29;20042;-88
2021/12/09 08:04:10;;;;;;;6.07;1.73;;;;;;;3.76;83.91;99346.06;4895691;29;20056;-87
2021/12/09 08:06:37;;;;;;;8.95;2.58;;;;;;;3.77;83.94;99350.38;4902965;29;20526;-88
2021/12/09 08:09:05;;;;;;;12.38;3.60;;;;;;;3.76;84.09;99346.84;4894348;29;20036;-88
2021/12/09 08:11:37;;;;;;;11.00;2.42;;;;;;;3.76;84.13;99335.88;4910470;29;20040;-85
2021/12/09 08:14:06;;;;;;;9.50;1.52;;;;;;;3.78;84.32;99328.16;4892805;29;20127;-88
2021/12/09 08:16:37;;;;;;;18.88;1.85;;;;;;;3.80;84.49;99325.88;4907903;29;20080;-87
2021/12/09 08:19:05;;;;;;;16.52;2.22;;;;;;;3.83;84.18;99330.69;4894975;29;20040;-87
2021/12/09 08:21:36;;;;;;;9.00;1.88;;;;;;;3.86;84.00;99326.47;4893733;29;20076;-85
2021/12/09 08:24:10;;;;;;;11.38;1.85;;;;;;;3.87;84.29;99319.84;4895438;29;20067;-88
2021/12/09 08:26:37;;;;;;;9.48;3.20;;;;;;;3.90;84.24;99319.19;4891190;29;20051;-88
2021/12/09 08:29:05;;;;;;;13.90;2.60;;;;;;;3.90;83.94;99302.75;4894817;29;20062;-88
2021/12/09 08:31:33;;;;;;;9.07;1.92;;;;;;;3.92;84.10;99295.03;4892683;29;20124;-88
2021/12/09 08:34:11;;;;;;;20.55;3.15;;;;;;;3.92;83.96;99290.34;4894394;29;20052;-88
2021/12/09 08:36:46;;;;;;;13.40;2.45;;;;;;;3.93;84.40;99272.78;4908053;29;20051;-88
2021/12/09 08:39:18;;;;;;;7.03;2.95;;;;;;;3.96;84.19;99280.31;4909703;29;20032;-86
2021/12/09 08:41:46;;;;;;;37.22;4.07;;;;;;;3.98;84.40;99267.09;4893944;29;20048;-86
2021/12/09 08:44:13;;;;;;;9.95;2.65;;;;;;;4.01;84.23;99279.31;4885733;29;20044;-85
2021/12/09 08:46:40;;;;;;;12.07;3.63;;;;;;;4.00;84.75;99270.28;4889888;29;20420;-86
2021/12/09 08:49:08;;;;;;;13.75;2.25;;;;;;;4.03;84.37;99280.56;4911984;29;20095;-88
2021/12/09 08:51:35;;;;;;;14.18;2.50;;;;;;;4.06;84.68;99282.63;4910588;29;20044;-86
2021/12/09 08:54:04;;;;;;;6.97;2.25;;;;;;;4.10;84.76;99286.28;4908708;29;20460;-87
2021/12/09 08:56:31;;;;;;;11.77;2.63;;;;;;;4.15;84.49;99282.56;4905076;29;20071;-86
2021/12/09 08:58:58;;;;;;;15.88;2.50;;;;;;;4.17;84.75;99270.13;4891897;29;20059;-90
2021/12/09 09:01:25;;;;;;;14.60;3.50;;;;;;;4.19;85.02;99278.00;4895075;29;20044;-86
2021/12/09 09:03:52;;;;;;;13.50;2.95;;;;;;;4.22;84.82;99272.63;4895101;29;20064;-90
2021/12/09 09:06:19;;;;;;;11.57;2.50;;;;;;;4.24;84.78;99264.88;4894208;29;20036;-88
2021/12/09 09:08:50;;;;;;;11.10;2.35;;;;;;;4.26;84.67;99246.16;4895969;29;20039;-86
2021/12/09 09:11:17;;;;;;;9.70;3.35;;;;;;;4.30;84.67;99238.88;4910198;29;20040;-86
2021/12/09 09:13:45;;;;;;;11.40;2.58;;;;;;;4.32;84.84;99244.81;4892237;29;20067;-86
2021/12/09 09:16:11;;;;;;;11.90;3.50;;;;;;;4.34;85.01;99246.41;4905641;29;20153;-85
2021/12/09 09:18:38;;;;;;;14.75;2.90;;;;;;;4.35;84.57;99243.31;4890889;29;20126;-86
2021/12/09 09:21:05;;;;;;;8.23;2.00;;;;;;;4.37;85.04;99246.50;4896967;29;20063;-86
2021/12/09 09:23:33;;;;;;;9.10;2.58;;;;;;;4.41;84.84;99235.69;4907130;29;20127;-86
2021/12/09 09:26:03;;;;;;;13.20;3.08;;;;;;;4.44;84.94;99237.75;4892668;29;20055;-85
2021/12/09 09:28:30;;;;;;;8.68;1.90;;;;;;;4.48;85.07;99236.72;4891184;29;20155;-86
2021/12/09 09:30:57;;;;;;;8.40;2.10;;;;;;;4.51;85.13;99244.25;4893839;29;20420;-86
2021/12/09 09:33:28;;;;;;;8.15;1.83;;;;;;;4.55;85.00;99230.69;4895872;29;20099;-86
2021/12/09 09:35:56;;;;;;;11.38;2.53;;;;;;;4.58;84.75;99233.53;4891939;29;20045;-85
2021/12/09 09:38:26;;;;;;;16.65;2.83;;;;;;;4.62;85.21;99211.72;4891879;29;22057;-85
2021/12/09 09:41:07;;;;;;;14.05;3.05;;;;;;;4.65;85.17;99219.25;4905682;29;20151;-84
2021/12/09 09:46:40;;;;;;;13.98;3.88;;;;;;;4.71;85.25;99193.22;4892929;29;20127;-85
2021/12/09 09:49:08;;;;;;;10.32;3.20;;;;;;;4.75;85.29;99202.34;4888822;29;20050;-85
2021/12/09 09:51:36;;;;;;;13.40;2.72;;;;;;;4.81;85.37;99195.50;4908010;29;20048;-85
2021/12/09 09:54:05;;;;;;;9.18;2.40;;;;;;;4.87;85.12;99188.63;4906895;29;20445;-86
2021/12/09 09:56:34;;;;;;;9.40;2.40;;;;;;;4.95;85.47;99193.16;4908318;29;20040;-85
2021/12/09 09:59:05;;;;;;;10.63;3.22;;;;;;;4.99;85.54;99174.09;4907945;29;20139;-85
2021/12/09 10:01:40;;;;;;;7.70;2.25;;;;;;;5.03;85.37;99181.25;4892715;29;20049;-85
2021/12/09 10:04:13;;;;;;;11.07;2.58;;;;;;;5.04;85.91;99180.13;4892965;29;20056;-85
2021/12/09 10:06:45;;;;;;;12.05;2.72;;;;;;;5.06;85.27;99186.06;4894519;29;20063;-86
2021/12/09 10:09:14;;;;;;;14.70;2.85;;;;;;;5.09;85.71;99166.19;4906545;29;20476;-85
2021/12/09 10:11:41;;;;;;;8.93;2.97;;;;;;;5.12;85.44;99154.50;4907508;29;20120;-85
2021/12/09 10:14:19;;;;;;;11.77;2.78;;;;;;;5.15;85.18;99159.31;4905976;29;20131;-85
2021/12/09 10:17:03;;;;;;;12.00;4.50;;;;;;;5.20;85.65;99159.06;4893226;29;20056;-86
2021/12/09 10:19:31;;;;;;;20.85;5.38;;;;;;;5.24;85.32;99154.47;4907597;29;20111;-85
2021/12/09 10:22:06;;;;;;;40.45;13.73;;;;;;;5.26;85.21;99160.41;4892049;29;20131;-85
2021/12/09 10:24:34;;;;;;;27.85;11.27;;;;;;;5.29;85.36;99154.25;4898024;29;20051;-86
2021/12/09 10:27:01;;;;;;;18.52;7.50;;;;;;;5.33;85.61;99163.34;4892447;29;20044;-86
2021/12/09 10:29:47;;;;;;;17.70;6.82;;;;;;;5.37;85.48;99169.75;4894701;29;20044;-86
2021/12/09 10:32:22;;;;;;;17.52;5.38;;;;;;;5.39;85.53;99161.97;4890125;29;20782;-85
2021/12/09 10:34:49;;;;;;;17.83;6.00;;;;;;;5.44;85.20;99164.47;4906641;29;20384;-86
2021/12/09 10:37:30;;;;;;;16.85;5.32;;;;;;;5.45;85.22;99148.78;4891335;29;20150;-85
2021/12/09 10:40:14;;;;;;;11.82;6.53;;;;;;;5.46;84.94;99142.94;4904147;29;20032;-85
2021/12/09 10:42:44;;;;;;;11.30;4.75;;;;;;;5.48;85.01;99121.44;4910201;29;20540;-85
2021/12/09 10:45:25;;;;;;;15.18;4.60;;;;;;;5.51;84.77;99120.72;4892848;29;20048;-84
2021/12/09 10:48:17;;;;;;;12.90;4.43;;;;;;;5.57;85.09;99106.75;4892679;29;20072;-85
2021/12/09 10:56:19;;;;;;;8.75;3.33;;;;;;;5.65;84.36;99072.84;4906020;29;20043;-85
2021/12/09 10:58:46;;;;;;;10.90;3.35;;;;;;;5.68;84.39;99064.72;4908329;29;20131;-86
2021/12/09 11:01:16;;;;;;;12.93;3.38;;;;;;;5.73;84.36;99069.13;4906450;29;20648;-85
2021/12/09 11:03:50;;;;;;;10.00;4.03;;;;;;;5.74;84.51;99057.81;4886106;29;20092;-85
2021/12/09 11:06:23;;;;;;;11.85;3.47;;;;;;;5.78;84.61;99057.88;4890131;29;20059;-88
2021/12/09 11:08:53;;;;;;;11.48;3.25;;;;;;;5.83;84.53;99054.88;4890387;29;20061;-87
2021/12/09 11:11:33;;;;;;;12.25;4.35;;;;;;;5.85;84.60;99050.63;4902432;29;20459;-87
2021/12/09 11:14:03;;;;;;;13.68;4.15;;;;;;;5.85;84.87;99041.63;4906792;29;20044;-86
2021/12/09 11:16:42;;;;;;;7.45;3.35;;;;;;;5.87;84.86;99042.06;4892932;29;20074;-86
2021/12/09 11:19:13;;;;;;;5.88;3.22;;;;;;;5.88;85.07;99036.19;4873199;29;20092;-86
2021/12/09 11:21:45;;;;;;;7.88;3.67;;;;;;;5.87;85.12;99020.09;4886933;29;20917;-86
2021/12/09 11:24:15;;;;;;;;;;;;;;;5.85;85.25;99009.44;4908054;29;20056;-87
2021/12/09 11:26:59;;;;;;;15.35;4.28;;;;;;;5.86;85.41;99005.56;4893838;29;19927;-87
2021/12/09 11:29:34;;;;;;;14.45;4.32;;;;;;;5.86;85.31;98994.56;4895681;29;20374;-86
2021/12/09 11:35:10;;;;;;;14.52;4.75;;;;;;;5.89;85.66;98973.84;4910738;29;20038;-87
2021/12/09 11:40:26;;;;;;;10.95;3.33;;;;;;;5.92;85.74;98960.19;4909974;29;20104;-86
2021/12/09 11:42:58;;;;;;;9.48;2.88;;;;;;;5.93;85.96;98944.53;4908584;29;20605;-87
2021/12/09 11:45:30;;;;;;;12.33;3.87;;;;;;;5.95;85.99;98936.72;4896580;29;20047;-87
2021/12/09 11:47:59;;;;;;;8.95;2.83;;;;;;;5.98;86.43;98930.50;4896955;29;20100;-87
2021/12/09 11:50:31;;;;;;;11.55;2.40;;;;;;;6.03;86.82;98927.47;4895446;29;20087;-88
2021/12/09 11:53:03;;;;;;;6.20;2.58;;;;;;;6.12;86.74;98925.31;4896652;29;20095;-88
2021/12/09 11:55:39;;;;;;;9.30;2.28;;;;;;;6.17;86.97;98911.28;4894890;29;20059;-88
2021/12/09 11:58:18;;;;;;;8.35;2.80;;;;;;;6.24;87.15;98889.47;4908564;29;20060;-85
2021/12/09 12:15:22;;;;;;;6.97;2.92;;;;;;;6.85;88.43;98830.91;4895541;29;20047;-89
2021/12/09 12:40:48;;;;;;;1.07;0.40;;;;;;;7.43;90.02;98762.63;4909001;29;20046;-86
2021/12/09 12:43:29;;;;;;;0.55;0.28;;;;;;;7.57;90.73;98757.31;4906529;29;20779;-87